Time;durP1;ratioP1;P1;durP2;ratioP2;P2;SDS_P1;SDS_P2;PMS_P1;PMS_P2;Temp;Humidity;BMP_temperature;BMP_pressure;BME280_temperature;BME280_humidity;BME280_pressure;Samples;Min_cycle;Max_cycle;Signal;HPM_P1;HPM_P2
2024/03/18 00:01:59;;;;;;;;;;;;;;;-144.99;82.32;52423.63;4969534;28;20068;-71
2024/03/18 00:04:27;;;;;;;;;;;;;;;-144.99;82.39;52484.78;4962555;28;20422;-71
2024/03/18 00:06:54;;;;;;;;;;;;;;;-144.99;82.58;52403.25;4940809;28;20433;-70
2024/03/18 00:09:20;;;;;;;;;;;;;;;-144.99;82.81;52466.44;4927079;28;19986;-71
2024/03/18 00:11:47;;;;;;;;;;;;;;;-144.99;82.58;52468.47;4937340;28;19931;-70
2024/03/18 00:14:13;;;;;;;;;;;;;;;-144.99;82.67;52486.81;4958725;28;19931;-71
2024/03/18 00:16:40;;;;;;;;;;;;;;;-144.99;83.10;52439.94;4938184;28;20022;-73
2024/03/18 00:19:06;;;;;;;;;;;;;;;-144.99;83.19;52476.63;4939068;28;19931;-72
2024/03/18 00:21:36;;;;;;;;;;;;;;;-144.99;83.24;52505.16;4938324;28;19985;-72
2024/03/18 00:24:02;;;;;;;;;;;;;;;-144.99;82.97;52478.66;4983971;28;19938;-72
2024/03/18 00:26:28;;;;;;;;;;;;;;;-144.99;82.73;52484.78;4962127;28;19962;-72
2024/03/18 00:28:55;;;;;;;;;;;;;;;-144.99;83.11;52444.03;4930548;28;20045;-71
2024/03/18 00:31:21;;;;;;;;;;;;;;;-144.99;82.93;52476.63;4923833;28;19934;-70
2024/03/18 00:33:48;;;;;;;;;;;;;;;-144.99;82.87;52452.16;4975770;28;19969;-71
2024/03/18 00:36:15;;;;;;;;;;;;;;;-144.99;83.22;52476.63;4970758;28;20792;-71
2024/03/18 00:38:42;;;;;;;;;;;;;;;-144.99;83.25;52462.34;4933922;28;20022;-71
2024/03/18 00:43:53;;;;;;;;;;;;;;;-144.99;83.09;52476.63;4954590;28;20020;-71
2024/03/18 00:46:19;;;;;;;;;;;;;;;-144.99;83.21;52468.47;4965328;28;20749;-70
2024/03/18 00:48:45;;;;;;;;;;;;;;;-144.99;83.08;52468.47;4944067;28;19938;-71
2024/03/18 00:51:12;;;;;;;;;;;;;;;-144.99;83.04;52446.06;4937865;28;19938;-71
2024/03/18 00:53:39;;;;;;;;;;;;;;;-144.99;82.71;52505.16;4976448;28;20024;-73
2024/03/18 00:56:07;;;;;;;;;;;;;;;-144.99;82.59;52452.16;4970344;28;19970;-71
2024/03/18 00:58:34;;;;;;;;;;;;;;;-144.99;83.06;52476.63;4934240;28;20010;-71
2024/03/18 01:01:01;;;;;;;;;;;;;;;-144.99;82.86;52444.03;4928449;28;19931;-71
2024/03/18 01:03:27;;;;;;;;;;;;;;;-144.99;82.69;52452.16;4954855;28;19991;-70
2024/03/18 01:05:53;;;;;;;;;;;;;;;-144.99;82.52;52452.16;4940716;28;19931;-71
2024/03/18 01:08:20;;;;;;;;;;;;;;;-144.99;82.79;52472.56;4966998;28;20017;-70
2024/03/18 01:10:48;;;;;;;;;;;;;;;-144.99;82.94;52448.09;4928024;28;20324;-70
2024/03/18 01:13:16;;;;;;;;;;;;;;;-144.99;82.88;52488.84;4947131;28;19931;-70
2024/03/18 01:15:42;;;;;;;;;;;;;;;-144.99;82.93;52448.09;4938246;28;19934;-70
2024/03/18 01:18:08;;;;;;;;;;;;;;;-144.99;82.83;52454.22;4962105;28;20644;-70
2024/03/18 01:20:35;;;;;;;;;;;;;;;-144.99;83.20;52435.88;4952525;28;20013;-70
2024/03/18 01:23:02;;;;;;;;;;;;;;;-144.99;83.35;52460.31;4930632;28;20053;-70
2024/03/18 01:25:29;;;;;;;;;;;;;;;-144.99;83.46;52472.56;4958368;28;20025;-69
2024/03/18 01:27:55;;;;;;;;;;;;;;;-144.99;83.43;52492.94;4992440;28;19925;-69
2024/03/18 01:30:23;;;;;;;;;;;;;;;-144.99;83.68;52448.09;4936756;28;19938;-69
2024/03/18 01:32:50;;;;;;;;;;;;;;;-144.99;83.74;52464.41;4953122;23;19927;-69
2024/03/18 01:35:16;;;;;;;;;;;;;;;-144.99;83.55;52468.47;4695614;28;10000518;-69
2024/03/18 01:37:44;;;;;;;;;;;;;;;-144.99;83.68;52448.09;5047252;28;20019;-69
2024/03/18 01:40:11;;;;;;;;;;;;;;;-144.99;83.82;52499.06;5045826;28;20031;-69
2024/03/18 01:42:38;;;;;;;;;;;;;;;-144.99;83.99;52421.59;5038382;28;20294;-69
2024/03/18 01:45:05;;;;;;;;;;;;;;;-144.99;84.37;52452.16;5047695;28;19979;-69
2024/03/18 01:47:33;;;;;;;;;;;;;;;-144.99;84.69;52484.78;5044483;28;19944;-71
2024/03/18 01:49:59;;;;;;;;;;;;;;;-144.99;83.91;52476.63;5048733;28;20300;-72
2024/03/18 01:52:26;;;;;;;;;;;;;;;-144.99;84.09;52472.56;5043229;28;19996;-72
2024/03/18 01:54:52;;;;;;;;;;;;;;;-144.99;84.45;52494.97;5038582;28;19956;-71
2024/03/18 01:57:19;;;;;;;;;;;;;;;-144.99;84.07;52435.88;5041621;28;20423;-72
2024/03/18 01:59:45;;;;;;;;;;;;;;;-144.99;84.30;52444.03;5048114;28;20337;-72
2024/03/18 02:02:12;;;;;;;;;;;;;;;-144.99;84.25;52456.25;5043714;28;19936;-72
2024/03/18 02:04:40;;;;;;;;;;;;;;;-144.99;84.22;52462.34;5042786;28;20424;-72
2024/03/18 02:07:19;;;;;;;;;;;;;;;-144.99;84.31;52427.72;5041559;28;19968;-73
2024/03/18 02:09:45;;;;;;;;;;;;;;;-144.99;84.22;52444.03;5038025;28;20018;-72
2024/03/18 02:12:12;;;;;;;;;;;;;;;-144.99;84.21;52464.41;5045302;28;20059;-72
2024/03/18 02:14:38;;;;;;;;;;;;;;;-144.99;83.94;52466.44;5046133;28;20020;-72
2024/03/18 02:17:05;;;;;;;;;;;;;;;-144.99;83.52;52492.94;5037089;28;19932;-72
2024/03/18 02:19:31;;;;;;;;;;;;;;;-144.99;83.75;52468.47;5049925;28;19925;-72
2024/03/18 02:22:04;;;;;;;;;;;;;;;-144.99;83.75;52480.72;5042097;28;20348;-72
2024/03/18 02:24:32;;;;;;;;;;;;;;;-144.99;83.97;52448.09;5044932;28;19963;-73
2024/03/18 02:27:04;;;;;;;;;;;;;;;-144.99;83.88;52444.03;5044847;28;20011;-72
2024/03/18 02:29:31;;;;;;;;;;;;;;;-144.99;83.91;52439.94;5047135;28;19987;-73
2024/03/18 02:31:57;;;;;;;;;;;;;;;-144.99;83.76;52480.72;5048722;28;19933;-73
2024/03/18 02:34:24;;;;;;;;;;;;;;;-144.99;83.80;52484.78;5040846;28;19932;-72
2024/03/18 02:36:51;;;;;;;;;;;;;;;-144.99;83.72;52456.25;5047241;28;19924;-72
2024/03/18 02:39:17;;;;;;;;;;;;;;;-144.99;84.06;52480.72;5047743;28;19929;-74
2024/03/18 02:41:46;;;;;;;;;;;;;;;-144.99;83.62;52474.59;5037108;28;20008;-72
2024/03/18 02:44:13;;;;;;;;;;;;;;;-144.99;84.12;52435.88;5047303;28;19936;-72
2024/03/18 02:46:39;;;;;;;;;;;;;;;-144.99;84.25;52444.03;5056318;28;19925;-73
2024/03/18 02:49:06;;;;;;;;;;;;;;;-144.99;83.70;52460.31;5058937;28;19925;-75
2024/03/18 02:51:32;;;;;;;;;;;;;;;-144.99;83.58;52441.97;5063891;28;20340;-72
2024/03/18 02:53:59;;;;;;;;;;;;;;;-144.99;83.62;52444.03;5050914;28;19956;-71
2024/03/18 02:56:25;;;;;;;;;;;;;;;-144.99;83.97;52439.94;5047041;28;19975;-72
2024/03/18 02:58:54;;;;;;;;;;;;;;;-144.99;84.32;52460.31;5045029;28;20024;-72
2024/03/18 03:01:21;;;;;;;;;;;;;;;-144.99;84.29;52427.72;5054094;28;19924;-70
2024/03/18 03:03:47;;;;;;;;;;;;;;;-144.99;84.66;52452.16;5053953;28;19967;-71
2024/03/18 03:06:14;;;;;;;;;;;;;;;-144.99;84.36;52452.16;5051113;28;19964;-73
2024/03/18 03:08:40;;;;;;;;;;;;;;;-144.99;84.03;52488.84;5042304;28;19991;-74
2024/03/18 03:11:07;;;;;;;;;;;;;;;-144.99;83.96;52472.56;5039440;28;20019;-77
2024/03/18 03:13:34;;;;;;;;;;;;;;;-144.99;84.09;52456.25;5047452;28;19925;-76
2024/03/18 03:16:02;;;;;;;;;;;;;;;-144.99;83.96;52456.25;5039435;28;20006;-69
2024/03/18 03:18:29;;;;;;;;;;;;;;;-144.99;83.89;52446.06;5050667;28;19948;-69
2024/03/18 03:20:58;;;;;;;;;;;;;;;-144.99;83.94;52431.78;5043358;28;19928;-69
2024/03/18 03:23:24;;;;;;;;;;;;;;;-144.99;83.89;52464.41;5040417;28;19925;-69
2024/03/18 03:25:50;;;;;;;;;;;;;;;-144.99;84.01;52452.16;5046681;28;19968;-68
2024/03/18 03:28:17;;;;;;;;;;;;;;;-144.99;83.54;52488.84;5038394;28;20504;-67
2024/03/18 03:30:43;;;;;;;;;;;;;;;-144.99;83.75;52444.03;5037379;28;20036;-62
2024/03/18 03:33:12;;;;;;;;;;;;;;;-144.99;83.86;52448.09;5045565;28;20020;-63
2024/03/18 03:35:39;;;;;;;;;;;;;;;-144.99;83.45;52484.78;5041647;28;20011;-64
2024/03/18 03:38:05;;;;;;;;;;;;;;;-144.99;83.42;52439.94;5044586;28;19925;-64
2024/03/18 03:40:32;;;;;;;;;;;;;;;-144.99;83.45;52468.47;5039417;28;20382;-64
2024/03/18 03:42:59;;;;;;;;;;;;;;;-144.99;83.65;52452.16;5045565;28;19925;-64
2024/03/18 03:45:25;;;;;;;;;;;;;;;-144.99;83.65;52456.25;5043498;28;19960;-63
2024/03/18 03:47:52;;;;;;;;;;;;;;;-144.99;83.68;52472.56;5042193;28;19982;-65
2024/03/18 03:50:20;;;;;;;;;;;;;;;-144.99;83.14;52448.09;5039743;28;19941;-64
2024/03/18 03:52:47;;;;;;;;;;;;;;;-144.99;83.47;52470.50;5042362;28;20070;-69
2024/03/18 03:55:15;;;;;;;;;;;;;;;-144.99;83.39;52468.47;5039453;28;20253;-69
2024/03/18 03:57:44;;;;;;;;;;;;;;;-144.99;83.37;52478.66;5042157;28;19925;-68
2024/03/18 04:00:13;;;;;;;;;;;;;;;-144.99;83.29;52472.56;5038421;28;19929;-68
2024/03/18 04:02:39;;;;;;;;;;;;;;;-144.99;83.62;52419.56;5045682;28;19990;-68
2024/03/18 04:05:06;;;;;;;;;;;;;;;-144.99;83.66;52482.75;5047516;28;20047;-70
2024/03/18 04:07:34;;;;;;;;;;;;;;;-144.99;83.83;52474.59;5040209;28;20024;-71
2024/03/18 04:10:00;;;;;;;;;;;;;;;-144.99;83.55;52472.56;5037704;28;20040;-71
2024/03/18 04:12:27;;;;;;;;;;;;;;;-144.99;83.46;52460.31;5041758;28;20007;-71
2024/03/18 04:14:53;;;;;;;;;;;;;;;-144.99;83.55;52456.25;5044250;28;19982;-71
2024/03/18 04:17:21;;;;;;;;;;;;;;;-144.99;83.76;52448.09;5041152;28;19925;-71
2024/03/18 04:19:48;;;;;;;;;;;;;;;-144.99;83.70;52456.25;5043887;28;20348;-72
2024/03/18 04:22:14;;;;;;;;;;;;;;;-144.99;83.73;52456.25;5045432;28;20012;-71
2024/03/18 04:24:45;;;;;;;;;;;;;;;-144.99;83.80;52452.16;5041221;28;19929;-71
2024/03/18 04:27:12;;;;;;;;;;;;;;;-144.99;83.26;52468.47;5044338;28;20023;-70
2024/03/18 04:29:39;;;;;;;;;;;;;;;-144.99;83.30;52427.72;5038792;28;19935;-68
2024/03/18 04:32:09;;;;;;;;;;;;;;;-144.99;83.37;52454.22;5045096;28;19933;-72
2024/03/18 04:34:35;;;;;;;;;;;;;;;-144.99;83.29;52497.00;5041016;28;20379;-73
2024/03/18 04:37:02;;;;;;;;;;;;;;;-144.99;83.36;52456.25;5044911;28;20023;-72
2024/03/18 04:39:29;;;;;;;;;;;;;;;-144.99;83.27;52480.72;5044816;28;19970;-73
2024/03/18 04:41:56;;;;;;;;;;;;;;;-144.99;83.36;52468.47;5045714;28;20323;-74
2024/03/18 04:44:23;;;;;;;;;;;;;;;-144.99;83.37;52417.53;5043417;28;19929;-74
2024/03/18 04:46:49;;;;;;;;;;;;;;;-144.99;83.58;52431.78;5036618;28;19939;-72
2024/03/18 04:49:16;;;;;;;;;;;;;;;-144.99;83.31;52472.56;5043034;28;19971;-72
2024/03/18 04:51:42;;;;;;;;;;;;;;;-144.99;83.38;52460.31;5044445;28;20029;-72
2024/03/18 04:54:09;;;;;;;;;;;;;;;-144.99;83.93;52484.78;5047039;28;19985;-71
2024/03/18 04:56:35;;;;;;;;;;;;;;;-144.99;83.89;52472.56;5042069;28;19960;-72
2024/03/18 04:59:03;;;;;;;;;;;;;;;-144.99;83.80;52427.72;5044472;28;19960;-70
2024/03/18 05:01:30;;;;;;;;;;;;;;;-144.99;83.55;52460.31;5041909;28;19925;-70
2024/03/18 05:03:59;;;;;;;;;;;;;;;-144.99;83.82;52480.72;5045697;28;19925;-69
2024/03/18 05:06:25;;;;;;;;;;;;;;;-144.99;83.83;52476.63;5040178;28;19932;-69
2024/03/18 05:08:52;;;;;;;;;;;;;;;-144.99;83.39;52484.78;5047274;28;19941;-70
2024/03/18 05:11:18;;;;;;;;;;;;;;;-144.99;83.34;52431.78;5050631;28;19987;-70
2024/03/18 05:13:45;;;;;;;;;;;;;;;-144.99;83.24;52488.84;5048148;28;19932;-70
2024/03/18 05:16:13;;;;;;;;;;;;;;;-144.99;83.22;52468.47;5047496;28;20251;-70
2024/03/18 05:18:40;;;;;;;;;;;;;;;-144.99;83.25;52454.22;5041895;28;20465;-67
2024/03/18 05:21:06;;;;;;;;;;;;;;;-144.99;83.16;52472.56;5043247;28;19976;-67
2024/03/18 05:23:33;;;;;;;;;;;;;;;-144.99;83.57;52460.31;5041521;28;19972;-67
2024/03/18 05:25:59;;;;;;;;;;;;;;;-144.99;83.17;52486.81;5047890;28;19924;-68
2024/03/18 05:28:26;;;;;;;;;;;;;;;-144.99;83.37;52433.81;5044585;28;20170;-66
2024/03/18 05:30:52;;;;;;;;;;;;;;;-144.99;83.31;52472.56;5044478;28;20119;-72
2024/03/18 05:33:20;;;;;;;;;;;;;;;-144.99;82.75;52492.94;5045538;28;20448;-70
2024/03/18 05:35:46;;;;;;;;;;;;;;;-144.99;82.44;52478.66;5042620;28;20439;-69
2024/03/18 05:38:13;;;;;;;;;;;;;;;-144.99;82.76;52454.22;5039218;28;20099;-73
2024/03/18 05:40:39;;;;;;;;;;;;;;;-144.99;82.86;52466.44;5041135;28;20255;-68
2024/03/18 05:43:06;;;;;;;;;;;;;;;-144.99;82.78;52444.03;5039230;28;20402;-71
2024/03/18 05:45:32;;;;;;;;;;;;;;;-144.99;83.09;52441.97;5046473;28;19967;-68
2024/03/18 05:47:59;;;;;;;;;;;;;;;-144.99;83.10;52464.41;5049193;28;19998;-69
2024/03/18 05:50:27;;;;;;;;;;;;;;;-144.99;82.85;52472.56;5036142;28;20056;-68
2024/03/18 05:52:54;;;;;;;;;;;;;;;-144.99;82.67;52466.44;5034288;28;19925;-69
2024/03/18 05:55:20;;;;;;;;;;;;;;;-144.99;82.60;52476.63;5039834;28;19979;-69
2024/03/18 05:57:47;;;;;;;;;;;;;;;-144.99;83.05;52427.72;5047029;28;19967;-68
2024/03/18 06:00:14;;;;;;;;;;;;;;;-144.99;82.50;52427.72;5039286;28;19925;-70
2024/03/18 06:02:41;;;;;;;;;;;;;;;-144.99;82.76;52474.59;5048313;28;19975;-68
2024/03/18 06:05:08;;;;;;;;;;;;;;;-144.99;82.83;52497.00;5043975;28;20408;-69
2024/03/18 06:07:37;;;;;;;;;;;;;;;-144.99;82.83;52464.41;5046118;28;19936;-68
2024/03/18 06:10:03;;;;;;;;;;;;;;;-144.99;82.83;52421.59;5033451;28;19932;-68
2024/03/18 06:12:30;;;;;;;;;;;;;;;-144.99;82.99;52448.09;5048991;28;20183;-70
2024/03/18 06:14:57;;;;;;;;;;;;;;;-144.99;82.73;52444.03;5045856;28;19929;-71
2024/03/18 06:17:23;;;;;;;;;;;;;;;-144.99;82.37;52439.94;5045818;28;20347;-71
2024/03/18 06:19:57;;;;;;;;;;;;;;;-144.99;82.40;52456.25;5046908;28;19928;-71
2024/03/18 06:22:24;;;;;;;;;;;;;;;-144.99;82.48;52460.31;5039852;28;19935;-71
2024/03/18 06:27:32;;;;;;;;;;;;;;;-144.99;81.83;52480.72;4997080;28;19924;-69
2024/03/18 06:29:58;;;;;;;;;;;;;;;-144.99;81.44;52452.16;5043220;28;20011;-69
2024/03/18 06:32:25;;;;;;;;;;;;;;;-144.99;81.58;52448.09;4694237;28;10000260;-70
2024/03/18 06:34:51;;;;;;;;;;;;;;;-144.99;81.66;52456.25;5038409;28;19972;-70
2024/03/18 06:37:18;;;;;;;;;;;;;;;-144.99;81.56;52492.94;5043708;28;19937;-72
2024/03/18 06:39:44;;;;;;;;;;;;;;;-144.99;81.46;52464.41;5039735;28;19929;-70
2024/03/18 06:42:12;;;;;;;;;;;;;;;-144.99;81.56;52472.56;5032916;28;19971;-70
2024/03/18 06:44:42;;;;;;;;;;;;;;;-144.99;81.32;52476.63;5039722;28;20012;-70
2024/03/18 06:47:09;;;;;;;;;;;;;;;-144.99;81.44;52419.56;5044177;28;19932;-70
2024/03/18 06:49:37;;;;;;;;;;;;;;;-144.99;81.28;52446.06;5036297;28;19968;-70
2024/03/18 06:52:03;;;;;;;;;;;;;;;-144.99;81.13;52454.22;5046567;28;20319;-70
2024/03/18 06:54:30;;;;;;;;;;;;;;;-144.99;81.40;52460.31;5038921;28;19933;-71
2024/03/18 06:56:56;;;;;;;;;;;;;;;-144.99;81.24;52458.28;5040595;28;20023;-71
2024/03/18 06:59:24;;;;;;;;;;;;;;;-144.99;81.10;52411.41;5031849;28;20126;-70
2024/03/18 07:01:51;;;;;;;;;;;;;;;-144.99;81.34;52474.59;5038865;28;20437;-70
2024/03/18 07:04:18;;;;;;;;;;;;;;;-144.99;80.98;52450.13;5040639;28;20251;-70
2024/03/18 07:06:45;;;;;;;;;;;;;;;-144.99;81.22;52419.56;5040078;28;19929;-69
2024/03/18 07:09:11;;;;;;;;;;;;;;;-144.99;80.96;52480.72;5041530;28;19940;-69
2024/03/18 07:11:37;;;;;;;;;;;;;;;-144.99;80.68;52482.75;5035570;28;19990;-69
2024/03/18 07:14:04;;;;;;;;;;;;;;;-144.99;80.80;52444.03;5035521;28;19960;-70
2024/03/18 07:16:32;;;;;;;;;;;;;;;-144.99;80.39;52452.16;5040452;28;20451;-70
2024/03/18 07:18:59;;;;;;;;;;;;;;;-144.99;80.59;52439.94;5042278;28;19969;-69
2024/03/18 07:21:25;;;;;;;;;;;;;;;-144.99;80.46;52439.94;5045236;28;20142;-69
2024/03/18 07:23:52;;;;;;;;;;;;;;;-144.99;80.70;52435.88;5032609;28;20351;-69
2024/03/18 07:26:18;;;;;;;;;;;;;;;-144.99;80.41;52448.09;5043711;28;20326;-69
2024/03/18 07:28:45;;;;;;;;;;;;;;;-144.99;80.22;52468.47;5037642;28;20311;-69
2024/03/18 07:31:13;;;;;;;;;;;;;;;-144.99;80.48;52427.72;5031237;28;20449;-70
2024/03/18 07:33:41;;;;;;;;;;;;;;;-144.99;80.60;52476.63;5042715;28;19933;-70
2024/03/18 07:36:08;;;;;;;;;;;;;;;-144.99;80.32;52454.22;5044292;28;19929;-70
2024/03/18 07:38:34;;;;;;;;;;;;;;;-144.99;80.46;52456.25;5039585;28;19970;-69
2024/03/18 07:41:01;;;;;;;;;;;;;;;-144.99;80.06;52431.78;5039406;28;19929;-69
2024/03/18 07:43:27;;;;;;;;;;;;;;;-144.99;80.04;52435.88;5028468;28;20023;-69
2024/03/18 07:45:54;;;;;;;;;;;;;;;-144.99;79.90;52462.34;5044017;28;19933;-68
2024/03/18 07:48:20;;;;;;;;;;;;;;;-144.99;79.82;52444.03;5032614;28;19929;-69
2024/03/18 07:50:54;;;;;;;;;;;;;;;-144.99;79.86;52419.56;5042917;28;20060;-68
2024/03/18 07:53:21;;;;;;;;;;;;;;;-144.99;79.87;52423.63;5040963;28;19929;-69
2024/03/18 07:55:47;;;;;;;;;;;;;;;-144.99;79.36;52431.78;5038699;28;19929;-69
2024/03/18 07:58:14;;;;;;;;;;;;;;;-144.99;79.43;52464.41;5034773;28;19998;-69
2024/03/18 08:00:40;;;;;;;;;;;;;;;-144.99;79.39;52446.06;5043410;28;19971;-69
2024/03/18 08:03:07;;;;;;;;;;;;;;;-144.99;79.26;52435.88;5042259;28;20339;-70
2024/03/18 08:05:33;;;;;;;;;;;;;;;-144.99;79.32;52399.19;5035745;28;19983;-69
2024/03/18 08:08:01;;;;;;;;;;;;;;;-144.99;78.86;52399.19;4687812;28;9999805;-69
2024/03/18 08:10:28;;;;;;;;;;;;;;;-144.99;78.37;52452.16;5039562;28;20178;-70
2024/03/18 08:12:56;;;;;;;;;;;;;;;-144.99;78.09;52460.31;5038747;28;20326;-69
2024/03/18 08:15:23;;;;;;;;;;;;;;;-144.99;77.87;52429.75;5040096;28;19929;-69
2024/03/18 08:17:49;;;;;;;;;;;;;;;-144.99;77.81;52435.88;5040799;28;19929;-69
2024/03/18 08:20:16;;;;;;;;;;;;;;;-144.99;77.54;52415.47;5037102;28;20414;-68
2024/03/18 08:22:42;;;;;;;;;;;;;;;-144.99;77.55;52452.16;5038306;28;20442;-69
2024/03/18 08:25:11;;;;;;;;;;;;;;;-144.99;77.09;52435.88;5027568;28;20016;-69
2024/03/18 08:27:37;;;;;;;;;;;;;;;-144.99;76.74;52427.72;5032382;28;19933;-68
2024/03/18 08:30:05;;;;;;;;;;;;;;;-144.99;76.57;52431.78;5033585;28;20016;-67
2024/03/18 08:32:31;;;;;;;;;;;;;;;-144.99;76.82;52419.56;5024889;28;19925;-67
2024/03/18 08:34:58;;;;;;;;;;;;;;;-144.99;76.16;52435.88;5042140;28;19928;-69
2024/03/18 08:37:24;;;;;;;;;;;;;;;-144.99;76.54;52448.09;5035736;28;20059;-69
2024/03/18 08:39:54;;;;;;;;;;;;;;;-144.99;76.37;52391.03;5041149;28;19967;-68
2024/03/18 08:42:22;;;;;;;;;;;;;;;-144.99;76.31;52439.94;5041376;28;19929;-68
2024/03/18 08:44:48;;;;;;;;;;;;;;;-144.99;76.13;52452.16;5046445;28;19933;-68
2024/03/18 08:47:15;;;;;;;;;;;;;;;-144.99;76.16;52466.44;5038744;28;20031;-68
2024/03/18 08:49:41;;;;;;;;;;;;;;;-144.99;75.85;52456.25;5039621;28;20103;-68
2024/03/18 08:52:08;;;;;;;;;;;;;;;-144.99;75.62;52435.88;5040433;28;19986;-68
2024/03/18 08:54:34;;;;;;;;;;;;;;;-144.99;75.71;52460.31;5040697;28;19925;-68
2024/03/18 08:57:01;;;;;;;;;;;;;;;-144.99;75.30;52386.94;5044746;28;20009;-68
2024/03/18 08:59:29;;;;;;;;;;;;;;;-144.99;75.73;52460.31;5042205;28;20547;-68
2024/03/18 09:01:56;;;;;;;;;;;;;;;-144.99;75.86;52407.31;5037746;28;19936;-67
2024/03/18 09:04:23;;;;;;;;;;;;;;;-144.99;75.67;52431.78;5043284;28;19928;-68
2024/03/18 09:06:49;;;;;;;;;;;;;;;-144.99;75.28;52462.34;5045965;28;19928;-68
2024/03/18 09:09:16;;;;;;;;;;;;;;;-144.99;75.31;52409.38;5042241;28;20023;-68
2024/03/18 09:11:42;;;;;;;;;;;;;;;-144.99;75.10;52415.47;5040660;28;19975;-68
2024/03/18 09:14:09;;;;;;;;;;;;;;;-144.99;75.27;52431.78;5035165;28;20653;-68
2024/03/18 09:16:37;;;;;;;;;;;;;;;-144.99;75.19;52444.03;5044379;28;19936;-68
2024/03/18 09:19:03;;;;;;;;;;;;;;;-144.99;74.65;52480.72;5045391;28;20035;-68
2024/03/18 09:21:30;;;;;;;;;;;;;;;-144.99;74.75;52427.72;5040977;28;20696;-68
2024/03/18 09:23:58;;;;;;;;;;;;;;;-144.99;74.79;52433.81;5045770;28;19935;-68
2024/03/18 09:26:24;;;;;;;;;;;;;;;-144.99;75.01;52421.59;5031862;28;20302;-69
2024/03/18 09:28:51;;;;;;;;;;;;;;;-144.99;74.71;52391.03;5044536;28;19990;-69
2024/03/18 09:31:17;;;;;;;;;;;;;;;-144.99;74.71;52452.16;5042340;28;19932;-69
2024/03/18 09:33:45;;;;;;;;;;;;;;;-144.99;74.92;52439.94;5044196;28;20039;-69
2024/03/18 09:36:12;;;;;;;;;;;;;;;-144.99;74.76;52476.63;5042688;28;20379;-70
2024/03/18 09:38:38;;;;;;;;;;;;;;;-144.99;74.62;52399.19;5037926;28;19928;-69
2024/03/18 09:41:05;;;;;;;;;;;;;;;-144.99;74.54;52439.94;5040884;28;19960;-69
2024/03/18 09:43:33;;;;;;;;;;;;;;;-144.99;74.24;52435.88;5045220;28;19987;-69
2024/03/18 09:46:00;;;;;;;;;;;;;;;-144.99;74.36;52476.63;5048269;28;19929;-69
2024/03/18 09:48:27;;;;;;;;;;;;;;;-144.99;74.05;52427.72;5048747;28;20020;-69
2024/03/18 09:50:54;;;;;;;;;;;;;;;-144.99;74.37;52431.78;5044545;28;19929;-69
2024/03/18 09:53:21;;;;;;;;;;;;;;;-144.99;73.93;52413.44;5043515;28;19981;-69
2024/03/18 09:55:48;;;;;;;;;;;;;;;-144.99;74.04;52407.31;5038320;28;19937;-69
2024/03/18 09:58:15;;;;;;;;;;;;;;;-144.99;74.25;52419.56;5038000;28;19928;-68
2024/03/18 10:00:44;;;;;;;;;;;;;;;-144.99;74.07;52448.09;5044893;28;19992;-69
2024/03/18 10:03:14;;;;;;;;;;;;;;;-144.99;73.96;52411.41;5035663;28;20655;-68
2024/03/18 10:05:41;;;;;;;;;;;;;;;-144.99;73.65;52439.94;5042913;28;20303;-68
2024/03/18 10:08:12;;;;;;;;;;;;;;;-144.99;73.95;52370.63;5030883;28;20440;-68
2024/03/18 10:10:38;;;;;;;;;;;;;;;-144.99;73.28;52427.72;5045109;28;19924;-68
2024/03/18 10:13:07;;;;;;;;;;;;;;;-144.99;73.16;52427.72;5037968;28;19980;-69
2024/03/18 10:15:33;;;;;;;;;;;;;;;-144.99;72.74;52415.47;5040295;28;20018;-69
2024/03/18 10:18:00;;;;;;;;;;;;;;;-144.99;72.17;52407.31;5041090;28;19929;-69
2024/03/18 10:20:26;;;;;;;;;;;;;;;-144.99;71.90;52403.25;5041149;28;20010;-69
2024/03/18 10:22:53;;;;;;;;;;;;;;;-144.99;71.71;52439.94;5040041;28;20054;-69
2024/03/18 10:25:23;;;;;;;;;;;;;;;-144.99;70.98;52399.19;5042264;28;20336;-69
2024/03/18 10:27:50;;;;;;;;;;;;;;;-144.99;71.31;52435.88;5043530;28;20014;-69
2024/03/18 10:30:17;;;;;;;;;;;;;;;-144.99;71.05;52370.63;5031936;28;19928;-69
2024/03/18 10:32:44;;;;;;;;;;;;;;;-144.99;71.33;52380.84;5039231;28;19929;-69
2024/03/18 10:35:18;;;;;;;;;;;;;;;-144.99;71.09;52399.19;5044780;28;19979;-69
2024/03/18 10:37:45;;;;;;;;;;;;;;;-144.99;70.94;52444.03;5037639;28;19929;-69
2024/03/18 10:40:24;;;;;;;;;;;;;;;-144.99;70.53;52415.47;5036516;28;20036;-69
2024/03/18 10:42:58;;;;;;;;;;;;;;;-144.99;70.51;52395.09;5037742;28;19941;-69
2024/03/18 10:45:27;;;;;;;;;;;;;;;-144.99;70.39;52388.97;5044074;28;20044;-69
2024/03/18 10:47:54;;;;;;;;;;;;;;;-144.99;69.69;52382.88;5038970;28;19929;-69
2024/03/18 10:50:22;;;;;;;;;;;;;;;-144.99;69.93;52364.53;5041756;28;20029;-69
2024/03/18 10:52:50;;;;;;;;;;;;;;;-144.99;69.60;52364.53;5040562;28;19986;-69
2024/03/18 10:55:17;;;;;;;;;;;;;;;-144.99;69.64;52382.88;5037765;28;20020;-69
2024/03/18 10:57:44;;;;;;;;;;;;;;;-144.99;69.29;52419.56;5043470;28;19964;-69
2024/03/18 11:00:13;;;;;;;;;;;;;;;-144.99;69.27;52401.22;5041986;28;19935;-68
2024/03/18 11:02:41;;;;;;;;;;;;;;;-144.99;68.77;52368.59;5041648;28;19944;-68
2024/03/18 11:05:20;;;;;;;;;;;;;;;-144.99;68.75;52386.94;5042966;28;20011;-70
2024/03/18 11:07:47;;;;;;;;;;;;;;;-144.99;68.16;52403.25;5034241;28;20012;-69
2024/03/18 11:10:14;;;;;;;;;;;;;;;-144.99;67.71;52399.19;5039598;28;20051;-70
2024/03/18 11:12:42;;;;;;;;;;;;;;;-144.99;67.96;52391.03;5041340;28;19929;-71
2024/03/18 11:15:10;;;;;;;;;;;;;;;-144.99;67.36;52382.88;5041096;28;19990;-69
2024/03/18 11:17:42;;;;;;;;;;;;;;;-144.99;67.20;52395.09;5044837;28;19932;-69
2024/03/18 11:20:13;;;;;;;;;;;;;;;-144.99;67.02;52358.41;5040533;28;19947;-69
2024/03/18 11:22:45;;;;;;;;;;;;;;;-144.99;66.92;52376.75;5039355;28;19929;-70
2024/03/18 11:25:15;;;;;;;;;;;;;;;-144.99;66.68;52325.81;5040644;28;19946;-70
2024/03/18 11:27:46;;;;;;;;;;;;;;;-144.99;65.62;52333.94;5037942;28;20268;-70
2024/03/18 11:30:24;;;;;;;;;;;;;;;-144.99;64.78;52329.88;5039955;28;20032;-70
2024/03/18 11:32:52;;;;;;;;;;;;;;;-144.99;64.62;52352.28;5040649;28;19929;-70
2024/03/18 11:35:18;;;;;;;;;;;;;;;-144.99;65.47;52382.88;5041795;28;19929;-70
2024/03/18 11:37:45;;;;;;;;;;;;;;;-144.99;65.37;52350.25;5037342;28;19979;-70
2024/03/18 11:40:14;;;;;;;;;;;;;;;-144.99;66.07;52395.09;5036393;28;20028;-70
2024/03/18 11:42:40;;;;;;;;;;;;;;;-144.99;66.14;52391.03;5040897;28;20046;-69
2024/03/18 11:45:06;;;;;;;;;;;;;;;-144.99;66.13;52360.44;5029188;28;19928;-70
2024/03/18 11:47:33;;;;;;;;;;;;;;;-144.99;66.32;52382.88;5031449;28;20031;-69
2024/03/18 11:50:03;;;;;;;;;;;;;;;-144.99;66.35;52364.53;5044210;28;19960;-69
2024/03/18 11:52:30;;;;;;;;;;;;;;;-144.99;66.83;52403.25;5037006;28;20311;-69
2024/03/18 11:54:57;;;;;;;;;;;;;;;-144.99;66.13;52382.88;5039250;28;19943;-70
2024/03/18 11:57:24;;;;;;;;;;;;;;;-144.99;66.59;52407.31;5030609;28;20470;-69
2024/03/18 11:59:50;;;;;;;;;;;;;;;-144.99;66.84;52391.03;5037892;28;20248;-69
2024/03/18 12:02:17;;;;;;;;;;;;;;;-144.99;66.56;52358.41;5039087;28;20326;-69
2024/03/18 12:04:43;;;;;;;;;;;;;;;-144.99;66.82;52362.50;5032822;28;20026;-70
2024/03/18 12:07:12;;;;;;;;;;;;;;;-144.99;66.77;52411.41;5042078;28;20016;-69
2024/03/18 12:09:39;;;;;;;;;;;;;;;-144.99;66.33;52354.34;5039954;28;20453;-68
2024/03/18 12:12:06;;;;;;;;;;;;;;;-144.99;65.98;52388.97;5039277;28;20023;-69
2024/03/18 12:14:33;;;;;;;;;;;;;;;-144.99;65.67;52342.09;5041764;28;19932;-69
2024/03/18 12:17:01;;;;;;;;;;;;;;;-144.99;65.68;52366.56;5042099;28;19925;-69
2024/03/18 12:19:28;;;;;;;;;;;;;;;-144.99;65.23;52346.19;5042748;28;20247;-69
2024/03/18 12:21:54;;;;;;;;;;;;;;;-144.99;65.28;52391.03;5038690;28;20348;-70
2024/03/18 12:29:58;;;;;;;;;;;;;;;-144.99;65.14;52382.88;5026959;28;20342;-70
2024/03/18 12:32:25;;;;;;;;;;;;;;;-144.99;65.09;52321.72;5046096;28;19959;-69
2024/03/18 12:34:52;;;;;;;;;;;;;;;-144.99;64.53;52338.03;5043444;28;20115;-70
2024/03/18 12:37:18;;;;;;;;;;;;;;;-144.99;64.03;52352.28;5046945;28;19955;-70